sensor_id;sensor_type;location;lat;lon;timestamp;P1;durP1;ratioP1;P2;durP2;ratioP2
14235;SDS011;7202;50.718;7.072;2022-12-29T00:01:48;1.13;;;0.57;;
14235;SDS011;7202;50.718;7.072;2022-12-29T00:04:18;0.50;;;0.38;;
14235;SDS011;7202;50.718;7.072;2022-12-29T00:06:47;0.30;;;0.30;;
14235;SDS011;7202;50.718;7.072;2022-12-29T00:09:16;0.88;;;0.50;;
14235;SDS011;7202;50.718;7.072;2022-12-29T00:11:45;0.73;;;0.52;;
14235;SDS011;7202;50.718;7.072;2022-12-29T00:14:15;2.30;;;0.40;;
14235;SDS011;7202;50.718;7.072;2022-12-29T00:17:01;2.20;;;0.60;;
14235;SDS011;7202;50.718;7.072;2022-12-29T00:19:30;0.55;;;0.40;;
14235;SDS011;7202;50.718;7.072;2022-12-29T00:22:16;0.60;;;0.40;;
14235;SDS011;7202;50.718;7.072;2022-12-29T00:25:03;0.50;;;0.50;;
14235;SDS011;7202;50.718;7.072;2022-12-29T00:27:50;0.30;;;0.30;;
14235;SDS011;7202;50.718;7.072;2022-12-29T00:30:37;1.40;;;0.50;;
14235;SDS011;7202;50.718;7.072;2022-12-29T00:33:25;1.25;;;0.60;;
14235;SDS011;7202;50.718;7.072;2022-12-29T00:36:15;0.52;;;0.22;;
14235;SDS011;7202;50.718;7.072;2022-12-29T00:38:47;0.90;;;0.40;;
14235;SDS011;7202;50.718;7.072;2022-12-29T00:41:36;0.30;;;0.30;;
14235;SDS011;7202;50.718;7.072;2022-12-29T00:44:22;0.30;;;0.22;;
14235;SDS011;7202;50.718;7.072;2022-12-29T00:46:53;0.55;;;0.40;;
14235;SDS011;7202;50.718;7.072;2022-12-29T00:49:21;0.43;;;0.32;;
14235;SDS011;7202;50.718;7.072;2022-12-29T00:52:02;0.50;;;0.30;;
14235;SDS011;7202;50.718;7.072;2022-12-29T00:54:33;1.15;;;0.60;;
14235;SDS011;7202;50.718;7.072;2022-12-29T00:57:03;0.50;;;0.50;;
14235;SDS011;7202;50.718;7.072;2022-12-29T00:59:34;0.60;;;0.43;;
14235;SDS011;7202;50.718;7.072;2022-12-29T01:02:04;0.43;;;0.38;;
14235;SDS011;7202;50.718;7.072;2022-12-29T01:04:33;0.40;;;0.35;;
14235;SDS011;7202;50.718;7.072;2022-12-29T01:07:02;0.30;;;0.30;;
14235;SDS011;7202;50.718;7.072;2022-12-29T01:09:31;0.15;;;0.15;;
14235;SDS011;7202;50.718;7.072;2022-12-29T01:12:17;0.28;;;0.25;;
14235;SDS011;7202;50.718;7.072;2022-12-29T01:15:10;0.20;;;0.20;;
14235;SDS011;7202;50.718;7.072;2022-12-29T01:17:42;0.32;;;0.25;;
14235;SDS011;7202;50.718;7.072;2022-12-29T01:20:11;0.40;;;0.25;;
14235;SDS011;7202;50.718;7.072;2022-12-29T01:22:40;0.40;;;0.40;;
14235;SDS011;7202;50.718;7.072;2022-12-29T01:25:09;0.43;;;0.40;;
14235;SDS011;7202;50.718;7.072;2022-12-29T01:27:38;0.30;;;0.20;;
14235;SDS011;7202;50.718;7.072;2022-12-29T01:30:07;0.60;;;0.40;;
14235;SDS011;7202;50.718;7.072;2022-12-29T01:32:36;0.50;;;0.40;;
14235;SDS011;7202;50.718;7.072;2022-12-29T01:35:06;0.30;;;0.30;;
14235;SDS011;7202;50.718;7.072;2022-12-29T01:37:35;0.40;;;0.35;;
14235;SDS011;7202;50.718;7.072;2022-12-29T01:40:04;0.65;;;0.40;;
14235;SDS011;7202;50.718;7.072;2022-12-29T01:42:33;1.13;;;0.60;;
14235;SDS011;7202;50.718;7.072;2022-12-29T01:45:03;0.40;;;0.38;;
14235;SDS011;7202;50.718;7.072;2022-12-29T01:47:38;2.38;;;0.40;;
14235;SDS011;7202;50.718;7.072;2022-12-29T01:50:11;0.60;;;0.43;;
14235;SDS011;7202;50.718;7.072;2022-12-29T01:52:46;0.75;;;0.60;;
14235;SDS011;7202;50.718;7.072;2022-12-29T01:55:22;0.75;;;0.50;;
14235;SDS011;7202;50.718;7.072;2022-12-29T01:57:52;1.17;;;0.50;;
14235;SDS011;7202;50.718;7.072;2022-12-29T02:00:23;0.50;;;0.40;;
14235;SDS011;7202;50.718;7.072;2022-12-29T02:02:57;1.45;;;0.50;;
14235;SDS011;7202;50.718;7.072;2022-12-29T02:05:28;0.63;;;0.52;;
14235;SDS011;7202;50.718;7.072;2022-12-29T02:08:01;0.80;;;0.50;;
14235;SDS011;7202;50.718;7.072;2022-12-29T02:10:31;1.40;;;0.63;;
14235;SDS011;7202;50.718;7.072;2022-12-29T02:13:02;0.68;;;0.60;;
14235;SDS011;7202;50.718;7.072;2022-12-29T02:15:35;0.93;;;0.60;;
14235;SDS011;7202;50.718;7.072;2022-12-29T02:18:20;1.65;;;0.73;;
14235;SDS011;7202;50.718;7.072;2022-12-29T02:21:10;0.50;;;0.50;;
14235;SDS011;7202;50.718;7.072;2022-12-29T02:27:34;0.60;;;0.50;;
14235;SDS011;7202;50.718;7.072;2022-12-29T02:30:13;0.70;;;0.45;;
14235;SDS011;7202;50.718;7.072;2022-12-29T02:32:54;1.80;;;0.55;;
14235;SDS011;7202;50.718;7.072;2022-12-29T02:35:32;0.52;;;0.50;;
14235;SDS011;7202;50.718;7.072;2022-12-29T02:38:10;0.63;;;0.45;;
14235;SDS011;7202;50.718;7.072;2022-12-29T02:40:48;0.60;;;0.60;;
14235;SDS011;7202;50.718;7.072;2022-12-29T02:43:22;0.82;;;0.60;;
14235;SDS011;7202;50.718;7.072;2022-12-29T02:45:56;0.40;;;0.38;;
14235;SDS011;7202;50.718;7.072;2022-12-29T02:48:28;0.65;;;0.60;;
14235;SDS011;7202;50.718;7.072;2022-12-29T02:51:00;0.82;;;0.50;;
14235;SDS011;7202;50.718;7.072;2022-12-29T02:53:32;0.43;;;0.40;;
14235;SDS011;7202;50.718;7.072;2022-12-29T02:56:19;1.80;;;0.65;;
14235;SDS011;7202;50.718;7.072;2022-12-29T02:58:48;1.20;;;0.70;;
14235;SDS011;7202;50.718;7.072;2022-12-29T03:01:23;1.15;;;0.50;;
14235;SDS011;7202;50.718;7.072;2022-12-29T03:04:10;0.85;;;0.40;;
14235;SDS011;7202;50.718;7.072;2022-12-29T03:06:52;0.90;;;0.50;;
14235;SDS011;7202;50.718;7.072;2022-12-29T03:09:30;1.75;;;0.52;;
14235;SDS011;7202;50.718;7.072;2022-12-29T03:12:08;1.33;;;0.55;;
14235;SDS011;7202;50.718;7.072;2022-12-29T03:14:46;1.20;;;0.60;;
14235;SDS011;7202;50.718;7.072;2022-12-29T03:17:43;1.42;;;0.55;;
14235;SDS011;7202;50.718;7.072;2022-12-29T03:20:17;0.68;;;0.50;;
14235;SDS011;7202;50.718;7.072;2022-12-29T03:22:56;2.47;;;0.70;;
14235;SDS011;7202;50.718;7.072;2022-12-29T03:25:31;1.90;;;0.63;;
14235;SDS011;7202;50.718;7.072;2022-12-29T03:28:09;0.60;;;0.50;;
14235;SDS011;7202;50.718;7.072;2022-12-29T03:30:44;0.75;;;0.50;;
14235;SDS011;7202;50.718;7.072;2022-12-29T03:33:20;0.68;;;0.50;;
14235;SDS011;7202;50.718;7.072;2022-12-29T03:35:54;0.88;;;0.68;;
14235;SDS011;7202;50.718;7.072;2022-12-29T03:38:31;1.80;;;0.77;;
14235;SDS011;7202;50.718;7.072;2022-12-29T03:41:07;1.50;;;0.65;;
14235;SDS011;7202;50.718;7.072;2022-12-29T03:43:40;0.75;;;0.60;;
14235;SDS011;7202;50.718;7.072;2022-12-29T03:46:09;0.75;;;0.60;;
14235;SDS011;7202;50.718;7.072;2022-12-29T03:48:42;0.70;;;0.63;;
14235;SDS011;7202;50.718;7.072;2022-12-29T03:51:11;0.90;;;0.60;;
14235;SDS011;7202;50.718;7.072;2022-12-29T03:53:41;2.92;;;0.50;;
14235;SDS011;7202;50.718;7.072;2022-12-29T03:56:09;1.00;;;0.60;;
14235;SDS011;7202;50.718;7.072;2022-12-29T03:58:38;1.02;;;0.65;;
14235;SDS011;7202;50.718;7.072;2022-12-29T04:01:10;1.25;;;0.50;;
14235;SDS011;7202;50.718;7.072;2022-12-29T04:03:38;0.60;;;0.47;;
14235;SDS011;7202;50.718;7.072;2022-12-29T04:06:08;0.57;;;0.38;;
14235;SDS011;7202;50.718;7.072;2022-12-29T04:08:54;1.33;;;0.60;;
14235;SDS011;7202;50.718;7.072;2022-12-29T04:11:22;0.80;;;0.60;;
14235;SDS011;7202;50.718;7.072;2022-12-29T04:13:59;4.60;;;1.02;;
14235;SDS011;7202;50.718;7.072;2022-12-29T04:16:29;0.50;;;0.50;;
14235;SDS011;7202;50.718;7.072;2022-12-29T04:18:58;0.25;;;0.25;;
14235;SDS011;7202;50.718;7.072;2022-12-29T04:21:28;0.38;;;0.30;;
14235;SDS011;7202;50.718;7.072;2022-12-29T04:23:57;1.77;;;0.60;;
14235;SDS011;7202;50.718;7.072;2022-12-29T04:26:27;0.40;;;0.40;;
14235;SDS011;7202;50.718;7.072;2022-12-29T04:29:15;0.63;;;0.50;;
14235;SDS011;7202;50.718;7.072;2022-12-29T04:32:02;0.50;;;0.45;;
14235;SDS011;7202;50.718;7.072;2022-12-29T04:34:34;1.10;;;0.82;;
14235;SDS011;7202;50.718;7.072;2022-12-29T04:37:04;1.02;;;0.60;;
14235;SDS011;7202;50.718;7.072;2022-12-29T04:39:33;1.02;;;0.40;;
14235;SDS011;7202;50.718;7.072;2022-12-29T04:42:03;2.58;;;0.50;;
14235;SDS011;7202;50.718;7.072;2022-12-29T04:44:32;2.05;;;0.70;;
14235;SDS011;7202;50.718;7.072;2022-12-29T04:47:13;0.98;;;0.50;;
14235;SDS011;7202;50.718;7.072;2022-12-29T04:49:48;1.05;;;0.60;;
14235;SDS011;7202;50.718;7.072;2022-12-29T04:52:33;0.40;;;0.35;;
14235;SDS011;7202;50.718;7.072;2022-12-29T04:55:02;1.02;;;0.50;;
14235;SDS011;7202;50.718;7.072;2022-12-29T04:57:33;1.52;;;0.60;;
14235;SDS011;7202;50.718;7.072;2022-12-29T05:00:02;4.43;;;0.60;;
14235;SDS011;7202;50.718;7.072;2022-12-29T05:02:31;1.40;;;0.60;;
14235;SDS011;7202;50.718;7.072;2022-12-29T05:05:00;0.40;;;0.30;;
14235;SDS011;7202;50.718;7.072;2022-12-29T05:07:30;0.35;;;0.30;;
14235;SDS011;7202;50.718;7.072;2022-12-29T05:10:03;1.42;;;0.32;;
14235;SDS011;7202;50.718;7.072;2022-12-29T05:12:34;1.38;;;0.35;;
14235;SDS011;7202;50.718;7.072;2022-12-29T05:15:05;0.82;;;0.40;;
14235;SDS011;7202;50.718;7.072;2022-12-29T05:17:35;0.38;;;0.38;;
14235;SDS011;7202;50.718;7.072;2022-12-29T05:20:18;1.60;;;0.45;;
14235;SDS011;7202;50.718;7.072;2022-12-29T05:22:47;0.52;;;0.40;;
14235;SDS011;7202;50.718;7.072;2022-12-29T05:25:17;0.30;;;0.30;;
14235;SDS011;7202;50.718;7.072;2022-12-29T05:27:55;0.30;;;0.30;;
14235;SDS011;7202;50.718;7.072;2022-12-29T05:30:37;1.05;;;0.55;;
14235;SDS011;7202;50.718;7.072;2022-12-29T05:33:05;0.50;;;0.50;;
14235;SDS011;7202;50.718;7.072;2022-12-29T05:35:34;0.80;;;0.60;;
14235;SDS011;7202;50.718;7.072;2022-12-29T05:38:03;1.38;;;0.73;;
14235;SDS011;7202;50.718;7.072;2022-12-29T05:40:33;0.40;;;0.40;;
14235;SDS011;7202;50.718;7.072;2022-12-29T05:43:06;0.50;;;0.43;;
14235;SDS011;7202;50.718;7.072;2022-12-29T05:45:39;0.80;;;0.60;;
14235;SDS011;7202;50.718;7.072;2022-12-29T05:48:30;1.15;;;0.63;;
14235;SDS011;7202;50.718;7.072;2022-12-29T05:51:12;2.03;;;0.60;;
14235;SDS011;7202;50.718;7.072;2022-12-29T05:53:52;1.48;;;0.70;;
14235;SDS011;7202;50.718;7.072;2022-12-29T05:56:23;1.08;;;0.80;;
14235;SDS011;7202;50.718;7.072;2022-12-29T05:58:56;1.80;;;0.65;;
14235;SDS011;7202;50.718;7.072;2022-12-29T06:01:24;1.48;;;0.70;;
14235;SDS011;7202;50.718;7.072;2022-12-29T06:03:53;2.05;;;0.80;;
14235;SDS011;7202;50.718;7.072;2022-12-29T06:06:22;1.27;;;0.70;;
14235;SDS011;7202;50.718;7.072;2022-12-29T06:08:51;2.42;;;0.77;;
14235;SDS011;7202;50.718;7.072;2022-12-29T06:11:20;1.38;;;0.98;;
14235;SDS011;7202;50.718;7.072;2022-12-29T06:13:54;2.35;;;0.90;;
14235;SDS011;7202;50.718;7.072;2022-12-29T06:16:23;1.40;;;0.90;;
14235;SDS011;7202;50.718;7.072;2022-12-29T06:18:56;1.25;;;0.80;;
14235;SDS011;7202;50.718;7.072;2022-12-29T06:21:25;6.18;;;1.42;;
14235;SDS011;7202;50.718;7.072;2022-12-29T06:23:53;5.68;;;1.20;;
14235;SDS011;7202;50.718;7.072;2022-12-29T06:26:23;2.15;;;1.13;;
14235;SDS011;7202;50.718;7.072;2022-12-29T06:28:52;5.43;;;1.23;;
14235;SDS011;7202;50.718;7.072;2022-12-29T06:31:21;1.38;;;1.10;;
14235;SDS011;7202;50.718;7.072;2022-12-29T06:33:50;1.63;;;1.00;;
14235;SDS011;7202;50.718;7.072;2022-12-29T06:36:19;2.72;;;1.48;;
14235;SDS011;7202;50.718;7.072;2022-12-29T06:38:47;8.57;;;1.45;;
14235;SDS011;7202;50.718;7.072;2022-12-29T06:41:19;2.83;;;1.30;;
14235;SDS011;7202;50.718;7.072;2022-12-29T06:44:29;3.70;;;1.10;;
14235;SDS011;7202;50.718;7.072;2022-12-29T06:47:00;2.22;;;1.00;;
14235;SDS011;7202;50.718;7.072;2022-12-29T06:49:29;1.23;;;0.80;;
14235;SDS011;7202;50.718;7.072;2022-12-29T06:51:58;0.75;;;0.65;;
14235;SDS011;7202;50.718;7.072;2022-12-29T06:54:27;4.35;;;0.75;;
14235;SDS011;7202;50.718;7.072;2022-12-29T06:56:56;0.68;;;0.60;;
14235;SDS011;7202;50.718;7.072;2022-12-29T06:59:25;2.53;;;0.55;;
14235;SDS011;7202;50.718;7.072;2022-12-29T07:01:54;3.17;;;1.00;;
14235;SDS011;7202;50.718;7.072;2022-12-29T07:04:23;1.23;;;0.38;;
14235;SDS011;7202;50.718;7.072;2022-12-29T07:06:52;2.05;;;0.40;;
14235;SDS011;7202;50.718;7.072;2022-12-29T07:09:21;0.75;;;0.30;;
14235;SDS011;7202;50.718;7.072;2022-12-29T07:11:49;2.15;;;0.43;;
14235;SDS011;7202;50.718;7.072;2022-12-29T07:14:18;0.88;;;0.40;;
14235;SDS011;7202;50.718;7.072;2022-12-29T07:16:46;0.88;;;0.50;;
14235;SDS011;7202;50.718;7.072;2022-12-29T07:19:16;2.35;;;0.47;;
14235;SDS011;7202;50.718;7.072;2022-12-29T07:21:45;0.47;;;0.40;;
14235;SDS011;7202;50.718;7.072;2022-12-29T07:24:14;1.92;;;0.43;;
14235;SDS011;7202;50.718;7.072;2022-12-29T07:26:42;1.38;;;0.63;;
14235;SDS011;7202;50.718;7.072;2022-12-29T07:29:11;1.13;;;0.60;;
14235;SDS011;7202;50.718;7.072;2022-12-29T07:31:39;1.95;;;0.50;;
14235;SDS011;7202;50.718;7.072;2022-12-29T07:34:08;1.73;;;0.45;;
14235;SDS011;7202;50.718;7.072;2022-12-29T07:36:38;3.13;;;0.38;;
14235;SDS011;7202;50.718;7.072;2022-12-29T07:39:07;0.88;;;0.50;;
14235;SDS011;7202;50.718;7.072;2022-12-29T07:41:36;1.38;;;0.40;;
14235;SDS011;7202;50.718;7.072;2022-12-29T07:44:04;0.63;;;0.40;;
14235;SDS011;7202;50.718;7.072;2022-12-29T07:46:53;1.63;;;0.60;;
14235;SDS011;7202;50.718;7.072;2022-12-29T07:49:24;1.45;;;0.60;;
14235;SDS011;7202;50.718;7.072;2022-12-29T07:51:54;1.27;;;0.60;;
14235;SDS011;7202;50.718;7.072;2022-12-29T07:54:23;0.22;;;0.20;;
14235;SDS011;7202;50.718;7.072;2022-12-29T07:56:52;1.90;;;0.60;;
14235;SDS011;7202;50.718;7.072;2022-12-29T07:59:20;0.50;;;0.50;;
14235;SDS011;7202;50.718;7.072;2022-12-29T08:01:49;1.95;;;0.40;;
14235;SDS011;7202;50.718;7.072;2022-12-29T08:04:18;1.77;;;0.57;;
14235;SDS011;7202;50.718;7.072;2022-12-29T08:06:50;2.30;;;0.57;;
14235;SDS011;7202;50.718;7.072;2022-12-29T08:09:20;2.80;;;0.50;;
14235;SDS011;7202;50.718;7.072;2022-12-29T08:11:50;1.88;;;0.70;;
14235;SDS011;7202;50.718;7.072;2022-12-29T08:14:19;1.40;;;0.50;;
14235;SDS011;7202;50.718;7.072;2022-12-29T08:16:47;2.30;;;0.40;;
14235;SDS011;7202;50.718;7.072;2022-12-29T08:19:16;1.42;;;0.47;;
14235;SDS011;7202;50.718;7.072;2022-12-29T08:21:44;1.30;;;0.50;;
14235;SDS011;7202;50.718;7.072;2022-12-29T08:24:13;1.42;;;0.60;;
14235;SDS011;7202;50.718;7.072;2022-12-29T08:26:43;0.85;;;0.57;;
14235;SDS011;7202;50.718;7.072;2022-12-29T08:29:12;2.70;;;0.70;;
14235;SDS011;7202;50.718;7.072;2022-12-29T08:31:40;0.75;;;0.30;;
14235;SDS011;7202;50.718;7.072;2022-12-29T08:34:09;0.80;;;0.50;;
14235;SDS011;7202;50.718;7.072;2022-12-29T08:36:38;2.30;;;0.60;;
14235;SDS011;7202;50.718;7.072;2022-12-29T08:39:07;1.42;;;0.65;;
14235;SDS011;7202;50.718;7.072;2022-12-29T08:41:36;1.65;;;0.50;;
14235;SDS011;7202;50.718;7.072;2022-12-29T08:44:05;3.33;;;0.60;;
14235;SDS011;7202;50.718;7.072;2022-12-29T08:46:34;0.55;;;0.32;;
14235;SDS011;7202;50.718;7.072;2022-12-29T08:49:03;1.60;;;0.80;;
14235;SDS011;7202;50.718;7.072;2022-12-29T08:51:31;4.38;;;0.80;;
14235;SDS011;7202;50.718;7.072;2022-12-29T08:54:00;5.38;;;0.60;;
14235;SDS011;7202;50.718;7.072;2022-12-29T08:56:29;2.75;;;0.90;;
14235;SDS011;7202;50.718;7.072;2022-12-29T08:58:59;2.17;;;0.63;;
14235;SDS011;7202;50.718;7.072;2022-12-29T09:01:31;1.35;;;0.68;;
14235;SDS011;7202;50.718;7.072;2022-12-29T09:04:00;4.63;;;0.70;;
14235;SDS011;7202;50.718;7.072;2022-12-29T09:06:41;3.55;;;0.60;;
14235;SDS011;7202;50.718;7.072;2022-12-29T09:09:11;1.83;;;0.70;;
14235;SDS011;7202;50.718;7.072;2022-12-29T09:11:40;4.28;;;1.08;;
14235;SDS011;7202;50.718;7.072;2022-12-29T09:14:10;2.60;;;0.60;;
14235;SDS011;7202;50.718;7.072;2022-12-29T09:16:40;4.68;;;0.80;;
14235;SDS011;7202;50.718;7.072;2022-12-29T09:19:26;2.33;;;0.77;;
14235;SDS011;7202;50.718;7.072;2022-12-29T09:21:55;1.73;;;0.70;;
14235;SDS011;7202;50.718;7.072;2022-12-29T09:24:23;2.60;;;0.90;;
14235;SDS011;7202;50.718;7.072;2022-12-29T09:26:52;2.80;;;0.70;;
14235;SDS011;7202;50.718;7.072;2022-12-29T09:29:20;3.85;;;0.80;;
14235;SDS011;7202;50.718;7.072;2022-12-29T09:31:51;5.88;;;0.77;;
14235;SDS011;7202;50.718;7.072;2022-12-29T09:34:19;1.77;;;0.70;;
14235;SDS011;7202;50.718;7.072;2022-12-29T09:36:50;3.40;;;0.77;;
14235;SDS011;7202;50.718;7.072;2022-12-29T09:39:19;2.95;;;0.70;;
14235;SDS011;7202;50.718;7.072;2022-12-29T09:41:49;3.53;;;0.80;;
14235;SDS011;7202;50.718;7.072;2022-12-29T09:44:26;1.55;;;0.82;;
14235;SDS011;7202;50.718;7.072;2022-12-29T09:47:07;1.10;;;0.57;;
14235;SDS011;7202;50.718;7.072;2022-12-29T09:49:40;3.05;;;0.77;;
14235;SDS011;7202;50.718;7.072;2022-12-29T09:52:13;3.10;;;0.80;;
14235;SDS011;7202;50.718;7.072;2022-12-29T09:54:46;3.55;;;0.93;;
14235;SDS011;7202;50.718;7.072;2022-12-29T09:57:32;2.45;;;0.93;;
14235;SDS011;7202;50.718;7.072;2022-12-29T10:00:08;1.67;;;0.68;;
14235;SDS011;7202;50.718;7.072;2022-12-29T10:02:43;6.20;;;0.80;;
14235;SDS011;7202;50.718;7.072;2022-12-29T10:05:19;1.05;;;0.57;;
14235;SDS011;7202;50.718;7.072;2022-12-29T10:07:56;9.40;;;1.40;;
14235;SDS011;7202;50.718;7.072;2022-12-29T10:10:43;6.60;;;1.20;;
14235;SDS011;7202;50.718;7.072;2022-12-29T10:13:27;3.05;;;1.00;;
14235;SDS011;7202;50.718;7.072;2022-12-29T10:16:04;2.53;;;1.17;;
14235;SDS011;7202;50.718;7.072;2022-12-29T10:18:44;4.93;;;2.30;;
14235;SDS011;7202;50.718;7.072;2022-12-29T10:21:25;5.38;;;2.40;;
14235;SDS011;7202;50.718;7.072;2022-12-29T10:24:00;3.38;;;1.90;;
14235;SDS011;7202;50.718;7.072;2022-12-29T10:26:33;5.40;;;1.88;;
14235;SDS011;7202;50.718;7.072;2022-12-29T10:29:08;3.33;;;1.75;;
14235;SDS011;7202;50.718;7.072;2022-12-29T10:31:43;4.97;;;1.10;;
14235;SDS011;7202;50.718;7.072;2022-12-29T10:34:17;3.83;;;0.90;;
14235;SDS011;7202;50.718;7.072;2022-12-29T10:36:50;3.47;;;1.10;;
14235;SDS011;7202;50.718;7.072;2022-12-29T10:39:26;2.17;;;0.73;;
14235;SDS011;7202;50.718;7.072;2022-12-29T10:42:03;6.72;;;1.50;;
14235;SDS011;7202;50.718;7.072;2022-12-29T10:44:39;1.90;;;0.90;;
14235;SDS011;7202;50.718;7.072;2022-12-29T10:47:10;5.90;;;1.40;;
14235;SDS011;7202;50.718;7.072;2022-12-29T10:49:45;4.90;;;1.20;;
14235;SDS011;7202;50.718;7.072;2022-12-29T10:52:16;2.50;;;0.73;;
14235;SDS011;7202;50.718;7.072;2022-12-29T10:54:48;3.25;;;1.00;;
14235;SDS011;7202;50.718;7.072;2022-12-29T10:57:24;2.13;;;0.90;;
14235;SDS011;7202;50.718;7.072;2022-12-29T10:59:55;5.25;;;0.85;;
14235;SDS011;7202;50.718;7.072;2022-12-29T11:02:41;2.05;;;0.63;;
14235;SDS011;7202;50.718;7.072;2022-12-29T11:05:22;2.42;;;0.73;;
14235;SDS011;7202;50.718;7.072;2022-12-29T11:07:58;5.85;;;1.42;;
14235;SDS011;7202;50.718;7.072;2022-12-29T11:10:30;3.05;;;0.95;;
14235;SDS011;7202;50.718;7.072;2022-12-29T11:13:10;1.83;;;0.93;;
14235;SDS011;7202;50.718;7.072;2022-12-29T11:15:41;3.20;;;1.00;;
14235;SDS011;7202;50.718;7.072;2022-12-29T11:18:17;4.65;;;0.85;;
14235;SDS011;7202;50.718;7.072;2022-12-29T11:20:49;6.80;;;1.10;;
14235;SDS011;7202;50.718;7.072;2022-12-29T11:23:23;3.47;;;0.80;;
14235;SDS011;7202;50.718;7.072;2022-12-29T11:26:07;4.20;;;0.95;;
14235;SDS011;7202;50.718;7.072;2022-12-29T11:28:44;4.00;;;0.80;;
14235;SDS011;7202;50.718;7.072;2022-12-29T11:31:17;3.97;;;0.88;;
14235;SDS011;7202;50.718;7.072;2022-12-29T11:33:49;4.07;;;0.80;;
14235;SDS011;7202;50.718;7.072;2022-12-29T11:36:21;3.67;;;0.93;;
14235;SDS011;7202;50.718;7.072;2022-12-29T11:38:52;4.00;;;1.08;;
14235;SDS011;7202;50.718;7.072;2022-12-29T11:41:23;2.83;;;1.13;;
14235;SDS011;7202;50.718;7.072;2022-12-29T11:43:53;4.43;;;1.35;;
14235;SDS011;7202;50.718;7.072;2022-12-29T11:46:25;3.22;;;1.00;;
14235;SDS011;7202;50.718;7.072;2022-12-29T11:48:57;3.72;;;0.88;;
14235;SDS011;7202;50.718;7.072;2022-12-29T11:51:29;3.40;;;0.90;;
14235;SDS011;7202;50.718;7.072;2022-12-29T11:54:01;2.63;;;0.80;;
14235;SDS011;7202;50.718;7.072;2022-12-29T11:56:33;3.28;;;0.88;;
14235;SDS011;7202;50.718;7.072;2022-12-29T12:02:22;2.55;;;0.98;;
14235;SDS011;7202;50.718;7.072;2022-12-29T12:05:11;4.47;;;0.93;;
14235;SDS011;7202;50.718;7.072;2022-12-29T12:07:45;4.38;;;1.30;;
14235;SDS011;7202;50.718;7.072;2022-12-29T12:10:18;2.78;;;1.02;;
14235;SDS011;7202;50.718;7.072;2022-12-29T12:12:56;2.38;;;1.10;;
14235;SDS011;7202;50.718;7.072;2022-12-29T12:15:31;3.72;;;0.80;;
14235;SDS011;7202;50.718;7.072;2022-12-29T12:18:12;4.30;;;0.90;;
14235;SDS011;7202;50.718;7.072;2022-12-29T12:20:48;2.33;;;0.80;;
14235;SDS011;7202;50.718;7.072;2022-12-29T12:23:25;3.72;;;1.08;;
14235;SDS011;7202;50.718;7.072;2022-12-29T12:26:09;3.22;;;1.00;;
14235;SDS011;7202;50.718;7.072;2022-12-29T12:28:43;2.95;;;0.95;;
14235;SDS011;7202;50.718;7.072;2022-12-29T12:31:22;3.30;;;1.17;;
14235;SDS011;7202;50.718;7.072;2022-12-29T12:34:01;2.65;;;0.88;;
14235;SDS011;7202;50.718;7.072;2022-12-29T12:36:51;3.28;;;1.17;;
14235;SDS011;7202;50.718;7.072;2022-12-29T12:39:43;4.35;;;1.02;;
14235;SDS011;7202;50.718;7.072;2022-12-29T12:42:29;4.63;;;1.10;;
14235;SDS011;7202;50.718;7.072;2022-12-29T12:45:21;3.55;;;1.33;;
14235;SDS011;7202;50.718;7.072;2022-12-29T12:48:05;6.35;;;1.35;;
14235;SDS011;7202;50.718;7.072;2022-12-29T12:50:50;4.93;;;1.33;;
14235;SDS011;7202;50.718;7.072;2022-12-29T12:53:33;5.57;;;1.00;;
14235;SDS011;7202;50.718;7.072;2022-12-29T12:59:05;3.60;;;1.08;;
14235;SDS011;7202;50.718;7.072;2022-12-29T13:01:46;3.58;;;1.15;;
14235;SDS011;7202;50.718;7.072;2022-12-29T13:04:26;3.45;;;0.90;;
14235;SDS011;7202;50.718;7.072;2022-12-29T13:07:13;3.53;;;0.93;;
14235;SDS011;7202;50.718;7.072;2022-12-29T13:10:01;3.72;;;1.27;;
14235;SDS011;7202;50.718;7.072;2022-12-29T13:12:48;2.08;;;1.10;;
14235;SDS011;7202;50.718;7.072;2022-12-29T13:15:29;4.90;;;1.20;;
14235;SDS011;7202;50.718;7.072;2022-12-29T13:18:12;5.88;;;1.15;;
14235;SDS011;7202;50.718;7.072;2022-12-29T13:20:52;3.58;;;1.23;;
14235;SDS011;7202;50.718;7.072;2022-12-29T13:23:26;5.70;;;1.02;;
14235;SDS011;7202;50.718;7.072;2022-12-29T13:26:05;4.82;;;1.00;;
14235;SDS011;7202;50.718;7.072;2022-12-29T13:28:43;3.38;;;1.00;;
14235;SDS011;7202;50.718;7.072;2022-12-29T13:31:21;4.55;;;1.05;;
14235;SDS011;7202;50.718;7.072;2022-12-29T13:33:58;6.72;;;1.45;;
14235;SDS011;7202;50.718;7.072;2022-12-29T13:36:33;5.32;;;1.05;;
14235;SDS011;7202;50.718;7.072;2022-12-29T13:39:10;2.20;;;0.88;;
14235;SDS011;7202;50.718;7.072;2022-12-29T13:41:48;4.70;;;1.27;;
14235;SDS011;7202;50.718;7.072;2022-12-29T13:44:21;3.05;;;1.10;;
14235;SDS011;7202;50.718;7.072;2022-12-29T13:46:58;6.70;;;1.20;;
14235;SDS011;7202;50.718;7.072;2022-12-29T13:49:30;4.28;;;1.00;;
14235;SDS011;7202;50.718;7.072;2022-12-29T13:52:04;5.43;;;1.50;;
14235;SDS011;7202;50.718;7.072;2022-12-29T13:54:40;5.70;;;1.85;;
14235;SDS011;7202;50.718;7.072;2022-12-29T13:57:15;3.53;;;1.35;;
14235;SDS011;7202;50.718;7.072;2022-12-29T13:59:57;4.63;;;1.30;;
14235;SDS011;7202;50.718;7.072;2022-12-29T14:02:41;5.07;;;1.30;;
14235;SDS011;7202;50.718;7.072;2022-12-29T14:05:26;3.42;;;1.10;;
14235;SDS011;7202;50.718;7.072;2022-12-29T14:07:57;4.35;;;1.20;;
14235;SDS011;7202;50.718;7.072;2022-12-29T14:10:28;5.50;;;1.50;;
14235;SDS011;7202;50.718;7.072;2022-12-29T14:13:03;3.10;;;1.40;;
14235;SDS011;7202;50.718;7.072;2022-12-29T14:15:36;5.00;;;1.40;;
14235;SDS011;7202;50.718;7.072;2022-12-29T14:18:12;3.28;;;0.95;;
14235;SDS011;7202;50.718;7.072;2022-12-29T14:20:47;2.75;;;1.00;;
14235;SDS011;7202;50.718;7.072;2022-12-29T14:23:28;3.28;;;1.13;;
14235;SDS011;7202;50.718;7.072;2022-12-29T14:26:10;2.67;;;0.85;;
14235;SDS011;7202;50.718;7.072;2022-12-29T14:28:42;5.82;;;1.40;;
14235;SDS011;7202;50.718;7.072;2022-12-29T14:36:57;2.88;;;0.82;;
14235;SDS011;7202;50.718;7.072;2022-12-29T14:39:29;3.90;;;1.00;;
14235;SDS011;7202;50.718;7.072;2022-12-29T14:42:05;3.33;;;1.10;;
14235;SDS011;7202;50.718;7.072;2022-12-29T14:44:46;3.38;;;1.13;;
14235;SDS011;7202;50.718;7.072;2022-12-29T14:47:19;3.42;;;0.98;;
14235;SDS011;7202;50.718;7.072;2022-12-29T14:50:02;2.92;;;1.02;;
14235;SDS011;7202;50.718;7.072;2022-12-29T14:52:32;4.00;;;1.00;;
14235;SDS011;7202;50.718;7.072;2022-12-29T14:55:32;4.38;;;1.23;;
14235;SDS011;7202;50.718;7.072;2022-12-29T14:58:07;2.72;;;1.10;;
14235;SDS011;7202;50.718;7.072;2022-12-29T15:00:42;5.68;;;1.10;;
14235;SDS011;7202;50.718;7.072;2022-12-29T15:03:17;3.50;;;1.45;;
14235;SDS011;7202;50.718;7.072;2022-12-29T15:05:49;3.08;;;1.20;;
14235;SDS011;7202;50.718;7.072;2022-12-29T15:08:19;4.93;;;1.35;;
14235;SDS011;7202;50.718;7.072;2022-12-29T15:10:52;8.07;;;1.67;;
14235;SDS011;7202;50.718;7.072;2022-12-29T15:13:24;3.50;;;1.40;;
14235;SDS011;7202;50.718;7.072;2022-12-29T15:16:01;6.60;;;1.50;;
14235;SDS011;7202;50.718;7.072;2022-12-29T15:18:32;3.88;;;1.10;;
14235;SDS011;7202;50.718;7.072;2022-12-29T15:21:02;6.63;;;1.30;;
14235;SDS011;7202;50.718;7.072;2022-12-29T15:23:33;3.78;;;1.25;;
14235;SDS011;7202;50.718;7.072;2022-12-29T15:26:05;4.57;;;1.17;;
14235;SDS011;7202;50.718;7.072;2022-12-29T15:28:38;8.63;;;1.60;;
14235;SDS011;7202;50.718;7.072;2022-12-29T15:31:10;7.47;;;1.55;;
14235;SDS011;7202;50.718;7.072;2022-12-29T15:33:43;7.63;;;1.45;;
14235;SDS011;7202;50.718;7.072;2022-12-29T15:36:16;5.43;;;1.65;;
14235;SDS011;7202;50.718;7.072;2022-12-29T15:38:47;6.40;;;1.60;;
14235;SDS011;7202;50.718;7.072;2022-12-29T15:41:21;5.80;;;1.67;;
14235;SDS011;7202;50.718;7.072;2022-12-29T15:43:57;4.35;;;1.00;;
14235;SDS011;7202;50.718;7.072;2022-12-29T15:46:35;4.47;;;1.30;;
14235;SDS011;7202;50.718;7.072;2022-12-29T15:49:06;4.50;;;1.50;;
14235;SDS011;7202;50.718;7.072;2022-12-29T15:51:36;7.22;;;2.03;;
14235;SDS011;7202;50.718;7.072;2022-12-29T15:54:06;6.50;;;1.75;;
14235;SDS011;7202;50.718;7.072;2022-12-29T15:56:43;8.07;;;1.90;;
14235;SDS011;7202;50.718;7.072;2022-12-29T15:59:22;9.02;;;2.35;;